createdAt,value
2022-12-17T00:01:27.520Z,-5.78
2022-12-17T00:04:13.652Z,-6.01
2022-12-17T00:06:59.970Z,-5.73
2022-12-17T00:09:50.267Z,-5.77
2022-12-17T00:12:36.421Z,-5.84
2022-12-17T00:15:23.135Z,-5.86
2022-12-17T00:18:11.166Z,-5.70
2022-12-17T00:20:57.001Z,-5.80
2022-12-17T00:23:42.973Z,-5.83
2022-12-17T00:26:28.513Z,-5.78
2022-12-17T00:29:14.524Z,-6.00
2022-12-17T00:32:00.550Z,-5.90
2022-12-17T00:34:48.250Z,-5.60
2022-12-17T00:37:33.901Z,-5.76
2022-12-17T00:40:19.830Z,-5.91
2022-12-17T00:43:05.802Z,-5.90
2022-12-17T00:45:51.944Z,-5.81
2022-12-17T00:48:38.436Z,-5.74
2022-12-17T00:51:26.976Z,-5.81
2022-12-17T00:54:13.018Z,-5.70
2022-12-17T00:56:59.662Z,-5.77
2022-12-17T00:59:45.727Z,-5.74
2022-12-17T01:02:28.031Z,-5.78
2022-12-17T01:05:14.177Z,-5.88
2022-12-17T01:08:01.809Z,-5.72
2022-12-17T01:10:48.207Z,-5.82
2022-12-17T01:13:34.885Z,-5.98
2022-12-17T01:16:22.472Z,-6.01
2022-12-17T01:19:08.706Z,-5.84
2022-12-17T01:21:54.744Z,-5.88
2022-12-17T01:24:43.702Z,-5.77
2022-12-17T01:27:30.014Z,-5.81
2022-12-17T01:30:16.205Z,-5.81
2022-12-17T01:33:02.111Z,-6.04
2022-12-17T01:35:48.096Z,-6.01
2022-12-17T01:38:36.326Z,-6.08
2022-12-17T01:41:29.433Z,-6.11
2022-12-17T01:44:15.308Z,-6.13
2022-12-17T01:47:06.997Z,-6.09
2022-12-17T01:49:53.074Z,-6.19
2022-12-17T01:52:40.344Z,-6.15
2022-12-17T01:55:26.301Z,-6.12
2022-12-17T01:58:14.090Z,-6.09
2022-12-17T02:01:00.864Z,-6.09
2022-12-17T02:03:46.692Z,-6.03
2022-12-17T02:06:54.176Z,-5.98
2022-12-17T02:09:44.466Z,-6.05
2022-12-17T02:12:36.642Z,-5.86
2022-12-17T02:15:28.940Z,-5.98
2022-12-17T02:18:18.447Z,-6.03
2022-12-17T02:21:06.982Z,-6.20
2022-12-17T02:24:12.266Z,-5.94
2022-12-17T02:27:01.487Z,-5.93
2022-12-17T02:29:50.137Z,-5.99
2022-12-17T02:32:37.258Z,-6.02
2022-12-17T02:35:29.730Z,-5.79
2022-12-17T02:38:15.894Z,-5.90
2022-12-17T02:41:03.909Z,-5.79
2022-12-17T02:43:51.976Z,-5.78
2022-12-17T02:46:38.648Z,-6.01
2022-12-17T02:49:30.104Z,-6.13
2022-12-17T02:52:16.403Z,-5.98
2022-12-17T02:55:02.625Z,-5.91
2022-12-17T02:57:53.629Z,-5.98
2022-12-17T03:00:42.148Z,-5.95
2022-12-17T03:03:28.282Z,-5.85
2022-12-17T03:06:14.672Z,-5.91
2022-12-17T03:09:01.288Z,-5.90
2022-12-17T03:11:47.764Z,-6.21
2022-12-17T03:14:33.698Z,-6.29
2022-12-17T03:17:20.931Z,-6.04
2022-12-17T03:20:06.931Z,-6.05
2022-12-17T03:22:52.927Z,-6.11
2022-12-17T03:25:40.076Z,-6.29
2022-12-17T03:28:29.180Z,-6.04
2022-12-17T03:31:16.688Z,-6.06
2022-12-17T03:34:04.321Z,-6.01
2022-12-17T03:36:50.586Z,-6.17
2022-12-17T03:39:36.536Z,-6.29
2022-12-17T03:42:22.700Z,-6.41
2022-12-17T03:45:09.711Z,-6.65
2022-12-17T03:47:55.665Z,-6.54
2022-12-17T03:50:43.340Z,-6.32
2022-12-17T03:53:28.792Z,-6.38
2022-12-17T03:56:14.841Z,-6.46
2022-12-17T03:59:01.051Z,-6.48
2022-12-17T04:01:47.622Z,-6.53
2022-12-17T04:04:33.655Z,-6.55
2022-12-17T04:07:20.932Z,-6.67
2022-12-17T04:10:18.350Z,-6.57
2022-12-17T04:13:04.436Z,-6.59
2022-12-17T04:15:50.581Z,-6.73
2022-12-17T04:18:37.051Z,-6.69
2022-12-17T04:21:23.726Z,-6.66
2022-12-17T04:24:11.216Z,-6.45
2022-12-17T04:26:57.724Z,-6.68
2022-12-17T04:29:43.888Z,-6.59
2022-12-17T04:32:34.925Z,-6.62
2022-12-17T04:35:21.567Z,-6.34
2022-12-17T04:38:08.183Z,-6.46
2022-12-17T04:40:55.871Z,-6.50
2022-12-17T04:43:41.760Z,-6.67
2022-12-17T04:46:27.943Z,-6.72
2022-12-17T04:49:14.037Z,-6.83
2022-12-17T04:51:59.909Z,-6.77
2022-12-17T04:54:45.975Z,-6.67
2022-12-17T04:57:33.859Z,-6.66
2022-12-17T05:00:19.910Z,-6.75
2022-12-17T05:03:06.150Z,-6.65
2022-12-17T05:05:52.400Z,-6.56
2022-12-17T05:08:41.592Z,-6.50
2022-12-17T05:11:27.580Z,-6.60
2022-12-17T05:14:15.449Z,-6.60
2022-12-17T05:17:01.424Z,-6.69
2022-12-17T05:19:55.472Z,-6.58
2022-12-17T05:22:41.376Z,-6.58
2022-12-17T05:25:27.876Z,-6.64
2022-12-17T05:28:13.855Z,-6.74
2022-12-17T05:31:01.641Z,-6.48
2022-12-17T05:33:47.724Z,-6.54
2022-12-17T05:36:33.549Z,-6.68
2022-12-17T05:39:19.535Z,-6.78
2022-12-17T05:42:05.728Z,-6.77
2022-12-17T05:44:48.163Z,-6.71
2022-12-17T05:47:35.672Z,-6.64
2022-12-17T05:50:21.134Z,-6.91
2022-12-17T05:53:07.681Z,-7.10
2022-12-17T05:55:54.163Z,-6.94
2022-12-17T05:58:40.043Z,-6.99
2022-12-17T06:01:26.233Z,-7.09
2022-12-17T06:04:14.278Z,-6.85
2022-12-17T06:07:00.142Z,-7.04
2022-12-17T06:09:46.141Z,-7.23
2022-12-17T06:12:32.272Z,-6.98
2022-12-17T06:15:18.299Z,-7.06
2022-12-17T06:18:22.898Z,-7.10
2022-12-17T06:21:11.306Z,-7.08
2022-12-17T06:23:57.378Z,-7.11
2022-12-17T06:26:43.338Z,-6.97
2022-12-17T06:29:29.415Z,-7.07
2022-12-17T06:32:15.456Z,-7.26
2022-12-17T06:35:01.646Z,-7.11
2022-12-17T06:37:49.529Z,-6.89
2022-12-17T06:40:50.759Z,-6.98
2022-12-17T06:43:33.621Z,-7.08
2022-12-17T06:46:20.232Z,-6.88
2022-12-17T06:49:06.681Z,-6.99
2022-12-17T06:51:52.626Z,-7.03
2022-12-17T06:54:39.513Z,-6.84
2022-12-17T06:57:25.600Z,-7.02
2022-12-17T07:00:11.773Z,-7.07
2022-12-17T07:02:57.902Z,-7.26
2022-12-17T07:05:43.906Z,-7.07
2022-12-17T07:08:29.507Z,-6.88
2022-12-17T07:11:19.281Z,-6.81
2022-12-17T07:14:05.261Z,-6.98
2022-12-17T07:16:51.374Z,-6.96
2022-12-17T07:19:37.744Z,-6.89
2022-12-17T07:22:23.871Z,-6.82
2022-12-17T07:25:09.792Z,-6.93
2022-12-17T07:28:02.763Z,-6.81
2022-12-17T07:30:54.135Z,-6.87
2022-12-17T07:33:41.817Z,-6.93
2022-12-17T07:36:28.046Z,-7.15
2022-12-17T07:39:14.018Z,-7.07
2022-12-17T07:41:59.821Z,-6.92
2022-12-17T07:44:47.578Z,-6.84
2022-12-17T07:47:33.665Z,-6.78
2022-12-17T07:50:19.441Z,-6.77
2022-12-17T07:53:05.613Z,-7.03
2022-12-17T07:55:51.455Z,-6.79
2022-12-17T07:58:37.439Z,-6.82
2022-12-17T08:01:25.436Z,-6.70
2022-12-17T08:04:11.335Z,-6.77
2022-12-17T08:07:02.846Z,-6.88
2022-12-17T08:09:51.767Z,-6.94
2022-12-17T08:12:38.155Z,-7.06
2022-12-17T08:15:25.045Z,-7.06
2022-12-17T08:18:22.936Z,-6.72
2022-12-17T08:21:12.397Z,-7.03
2022-12-17T08:23:58.303Z,-6.97
2022-12-17T08:26:47.905Z,-7.10
2022-12-17T08:29:34.274Z,-6.86
2022-12-17T08:32:20.221Z,-7.17
2022-12-17T08:35:07.828Z,-7.05
2022-12-17T08:37:55.060Z,-6.98
2022-12-17T08:40:41.134Z,-7.01
2022-12-17T08:43:27.130Z,-6.87
2022-12-17T08:46:13.433Z,-6.96
2022-12-17T08:48:59.387Z,-6.86
2022-12-17T08:51:46.814Z,-6.66
2022-12-17T08:54:32.837Z,-6.52
2022-12-17T08:57:30.829Z,-6.55
2022-12-17T09:00:18.212Z,-6.41
2022-12-17T09:03:04.457Z,-6.35
2022-12-17T09:05:50.881Z,-6.32
2022-12-17T09:08:38.774Z,-6.38
2022-12-17T09:11:24.268Z,-6.72
2022-12-17T09:14:10.243Z,-6.89
2022-12-17T09:16:56.453Z,-7.22
2022-12-17T09:19:42.802Z,-7.15
2022-12-17T09:22:28.736Z,-7.00
2022-12-17T09:25:16.246Z,-6.87
2022-12-17T09:28:02.288Z,-6.75
2022-12-17T09:30:48.456Z,-6.69
2022-12-17T09:33:35.290Z,-6.57
2022-12-17T09:36:22.101Z,-6.51
2022-12-17T09:39:08.436Z,-6.55
2022-12-17T09:41:59.421Z,-6.28
2022-12-17T09:44:49.040Z,-6.03
2022-12-17T09:47:42.151Z,-6.15
2022-12-17T09:50:33.022Z,-6.20
2022-12-17T09:53:21.647Z,-6.36
2022-12-17T09:56:10.058Z,-6.33
2022-12-17T09:58:59.133Z,-6.47
2022-12-17T10:01:47.541Z,-6.50
2022-12-17T10:04:35.136Z,-6.53
2022-12-17T10:07:22.035Z,-6.62
2022-12-17T10:10:10.546Z,-6.71
2022-12-17T10:12:57.215Z,-6.64
2022-12-17T10:15:44.927Z,-6.41
2022-12-17T10:18:31.492Z,-6.39
2022-12-17T10:21:19.683Z,-6.30
2022-12-17T10:24:05.760Z,-6.40
2022-12-17T10:26:53.619Z,-6.22
2022-12-17T10:29:47.385Z,-6.20
2022-12-17T10:32:40.971Z,-6.11
2022-12-17T10:35:31.875Z,-6.12
2022-12-17T10:38:19.035Z,-6.11
2022-12-17T10:41:05.128Z,-6.53
2022-12-17T10:43:53.298Z,-6.31
2022-12-17T10:46:43.904Z,-6.46
2022-12-17T10:49:33.499Z,-6.40
2022-12-17T10:52:21.995Z,-6.35
2022-12-17T10:55:16.132Z,-6.50
2022-12-17T10:58:02.207Z,-6.59
2022-12-17T11:00:50.747Z,-6.54
2022-12-17T11:03:49.147Z,-6.39
2022-12-17T11:06:42.499Z,-6.54
2022-12-17T11:09:37.538Z,-6.62
2022-12-17T11:12:30.135Z,-6.60
2022-12-17T11:15:20.099Z,-6.33
2022-12-17T11:18:11.342Z,-6.48
2022-12-17T11:21:06.585Z,-6.43
2022-12-17T11:23:55.332Z,-6.40
2022-12-17T11:26:44.257Z,-6.57
2022-12-17T11:29:31.852Z,-6.62
2022-12-17T11:33:00.655Z,-6.28
2022-12-17T11:35:49.149Z,-6.53
2022-12-17T11:38:44.673Z,-6.65
2022-12-17T11:41:39.049Z,-7.12
2022-12-17T11:44:34.469Z,-6.86
2022-12-17T11:47:29.090Z,-6.75
2022-12-17T11:50:19.539Z,-6.76
2022-12-17T11:53:11.934Z,-6.59
2022-12-17T11:56:03.459Z,-6.52
2022-12-17T11:58:53.810Z,-6.37
2022-12-17T12:01:48.674Z,-6.66
2022-12-17T12:04:46.937Z,-6.63
2022-12-17T12:07:39.804Z,-6.51
2022-12-17T12:10:29.864Z,-6.40
2022-12-17T12:13:21.804Z,-6.25
2022-12-17T12:16:16.997Z,-6.20
2022-12-17T12:19:09.529Z,-6.42
2022-12-17T12:21:58.086Z,-6.32
2022-12-17T12:25:05.505Z,-6.33
2022-12-17T12:27:57.875Z,-6.37
2022-12-17T12:30:48.717Z,-6.25
2022-12-17T12:33:42.846Z,-6.19
2022-12-17T12:36:30.058Z,-6.33
2022-12-17T12:39:16.520Z,-6.22
2022-12-17T12:42:09.225Z,-6.24
2022-12-17T12:45:08.778Z,-6.47
2022-12-17T12:48:02.700Z,-6.43
2022-12-17T12:50:55.370Z,-6.59
2022-12-17T12:53:43.784Z,-6.84
2022-12-17T12:56:45.155Z,-6.66
2022-12-17T12:59:49.558Z,-6.71
2022-12-17T13:02:46.225Z,-6.72
2022-12-17T13:05:35.690Z,-6.84
2022-12-17T13:08:21.881Z,-6.69
2022-12-17T13:10:52.727Z,-6.72
2022-12-17T13:13:35.810Z,-6.62
2022-12-17T13:16:09.267Z,-6.79
2022-12-17T13:18:41.085Z,-6.65
2022-12-17T13:21:26.788Z,-6.92
2022-12-17T13:23:56.980Z,-7.10
2022-12-17T13:26:32.435Z,-6.99
2022-12-17T13:29:04.226Z,-7.38
2022-12-17T13:31:45.340Z,-7.50
2022-12-17T13:34:19.419Z,-7.52
2022-12-17T13:36:52.485Z,-7.38
2022-12-17T13:39:32.309Z,-7.49
2022-12-17T13:42:02.102Z,-7.28
2022-12-17T13:44:35.475Z,-7.43
2022-12-17T13:47:04.270Z,-7.57
2022-12-17T13:49:33.090Z,-7.47
2022-12-17T13:52:07.976Z,-7.42
2022-12-17T13:54:40.848Z,-7.19
2022-12-17T13:57:10.593Z,-7.11
2022-12-17T13:59:39.601Z,-7.22
2022-12-17T14:02:23.014Z,-7.19
2022-12-17T14:04:54.202Z,-7.38
2022-12-17T14:07:24.221Z,-7.42
2022-12-17T14:09:54.522Z,-7.34
2022-12-17T14:12:26.281Z,-7.40
2022-12-17T14:14:57.312Z,-7.55
2022-12-17T14:17:27.345Z,-7.77
2022-12-17T14:20:00.314Z,-7.66
2022-12-17T14:22:34.386Z,-7.83
2022-12-17T14:25:06.070Z,-7.92
2022-12-17T14:27:37.016Z,-7.80
2022-12-17T14:30:22.483Z,-7.83
2022-12-17T14:32:51.199Z,-8.00
2022-12-17T14:35:28.291Z,-7.62
2022-12-17T14:37:57.377Z,-7.78
2022-12-17T14:40:27.913Z,-7.62
2022-12-17T14:43:00.659Z,-7.61
2022-12-17T14:45:30.058Z,-7.66
2022-12-17T14:48:00.276Z,-7.80
2022-12-17T14:50:33.800Z,-7.90
2022-12-17T14:53:03.851Z,-7.88
2022-12-17T14:55:36.881Z,-7.92
2022-12-17T14:58:15.944Z,-7.94
2022-12-17T15:00:47.568Z,-8.07
2022-12-17T15:03:22.592Z,-7.86
2022-12-17T15:05:54.416Z,-7.77
2022-12-17T15:08:23.403Z,-7.77
2022-12-17T15:10:53.081Z,-7.71
2022-12-17T15:13:22.143Z,-7.84
2022-12-17T15:15:50.800Z,-7.78
2022-12-17T15:18:19.546Z,-7.69
2022-12-17T15:20:48.278Z,-8.06
2022-12-17T15:23:18.598Z,-8.17
2022-12-17T15:25:47.971Z,-8.41
2022-12-17T15:28:19.379Z,-8.56
2022-12-17T15:30:48.400Z,-8.68
2022-12-17T15:33:17.167Z,-8.71
2022-12-17T15:35:46.437Z,-8.53
2022-12-17T15:38:15.341Z,-8.66
2022-12-17T15:40:43.825Z,-8.87
2022-12-17T15:43:11.791Z,-8.81
2022-12-17T15:45:43.832Z,-9.06
2022-12-17T15:48:15.099Z,-8.59
2022-12-17T15:50:44.029Z,-8.51
2022-12-17T15:53:13.358Z,-8.66
2022-12-17T15:55:42.058Z,-8.52
2022-12-17T15:58:11.760Z,-8.72
2022-12-17T16:00:40.535Z,-8.80
2022-12-17T16:03:10.772Z,-8.73
2022-12-17T16:05:39.570Z,-9.05
2022-12-17T16:08:08.211Z,-8.75
2022-12-17T16:10:36.510Z,-8.98
2022-12-17T16:13:05.300Z,-8.85
2022-12-17T16:15:34.020Z,-8.77
2022-12-17T16:18:02.774Z,-8.65
2022-12-17T16:20:32.875Z,-8.59
2022-12-17T16:23:01.645Z,-8.49
2022-12-17T16:25:30.020Z,-8.84
2022-12-17T16:27:58.716Z,-8.97
2022-12-17T16:30:27.407Z,-9.04
2022-12-17T16:32:59.164Z,-9.25
2022-12-17T16:35:28.482Z,-9.25
2022-12-17T16:37:58.134Z,-8.76
2022-12-17T16:40:26.778Z,-9.31
2022-12-17T16:42:55.514Z,-9.10
2022-12-17T16:45:24.172Z,-9.39
2022-12-17T16:47:53.036Z,-9.09
2022-12-17T16:50:21.807Z,-9.40
2022-12-17T16:52:50.270Z,-9.17
2022-12-17T16:55:20.334Z,-8.89
2022-12-17T16:57:48.765Z,-8.59
2022-12-17T17:00:17.755Z,-8.66
2022-12-17T17:02:52.816Z,-9.31
2022-12-17T17:05:22.181Z,-8.79
2022-12-17T17:07:50.634Z,-9.05
2022-12-17T17:10:20.711Z,-8.86
2022-12-17T17:12:49.102Z,-8.75
2022-12-17T17:15:17.989Z,-9.36
2022-12-17T17:17:54.044Z,-9.55
2022-12-17T17:20:25.011Z,-9.14
2022-12-17T17:22:53.330Z,-9.28
2022-12-17T17:25:34.479Z,-9.30
2022-12-17T17:28:13.051Z,-9.49
2022-12-17T17:30:42.212Z,-9.66
2022-12-17T17:33:11.245Z,-9.53
2022-12-17T17:35:40.215Z,-9.34
2022-12-17T17:38:08.941Z,-9.66
2022-12-17T17:40:38.801Z,-9.56
2022-12-17T17:43:07.429Z,-9.32
2022-12-17T17:45:36.061Z,-9.12
2022-12-17T17:48:04.910Z,-9.45
2022-12-17T17:50:33.635Z,-9.44
2022-12-17T17:53:02.425Z,-9.32
2022-12-17T17:55:30.800Z,-9.35
2022-12-17T17:58:00.881Z,-9.34
2022-12-17T18:00:29.412Z,-9.06
2022-12-17T18:03:00.506Z,-8.97
2022-12-17T18:05:29.495Z,-9.21
2022-12-17T18:07:58.319Z,-8.97
2022-12-17T18:10:26.627Z,-9.02
2022-12-17T18:13:12.945Z,-8.81
2022-12-17T18:15:43.135Z,-8.82
2022-12-17T18:18:14.658Z,-8.82
2022-12-17T18:20:43.817Z,-9.07
2022-12-17T18:23:12.415Z,-8.78
2022-12-17T18:25:41.111Z,-9.01
2022-12-17T18:28:09.857Z,-9.13
2022-12-17T18:30:39.684Z,-8.99
2022-12-17T18:33:09.788Z,-8.90
2022-12-17T18:35:38.539Z,-8.90
2022-12-17T18:38:07.207Z,-9.19
2022-12-17T18:40:36.935Z,-9.16
2022-12-17T18:43:22.932Z,-8.71
2022-12-17T18:45:51.898Z,-8.65
2022-12-17T18:48:23.989Z,-8.79
2022-12-17T18:50:52.546Z,-9.10
2022-12-17T18:53:21.186Z,-9.19
2022-12-17T18:55:49.603Z,-9.12
2022-12-17T18:58:18.303Z,-8.82
2022-12-17T19:00:47.184Z,-8.97
2022-12-17T19:03:15.944Z,-9.05
2022-12-17T19:05:50.122Z,-8.95
2022-12-17T19:08:21.906Z,-8.80
2022-12-17T19:10:50.381Z,-8.56
2022-12-17T19:13:19.423Z,-8.71
2022-12-17T19:15:48.129Z,-8.55
2022-12-17T19:18:16.752Z,-8.67
2022-12-17T19:20:46.859Z,-8.71
2022-12-17T19:23:15.651Z,-8.90
2022-12-17T19:25:44.348Z,-8.75
2022-12-17T19:28:13.048Z,-9.00
2022-12-17T19:30:41.757Z,-8.72
2022-12-17T19:33:10.411Z,-8.86
2022-12-17T19:35:39.387Z,-8.49
2022-12-17T19:38:09.487Z,-8.30
2022-12-17T19:40:37.897Z,-8.45
2022-12-17T19:43:06.701Z,-8.43
2022-12-17T19:45:35.462Z,-8.37
2022-12-17T19:48:04.078Z,-8.30
2022-12-17T19:50:32.758Z,-8.33
2022-12-17T19:53:01.550Z,-8.42
2022-12-17T19:55:31.195Z,-8.62
2022-12-17T19:57:59.808Z,-8.72
2022-12-17T20:00:28.460Z,-8.38
2022-12-17T20:02:58.182Z,-8.53
2022-12-17T20:05:26.932Z,-8.54
2022-12-17T20:07:55.246Z,-8.58
2022-12-17T20:10:23.924Z,-8.94
2022-12-17T20:12:54.077Z,-8.36
2022-12-17T20:15:22.633Z,-7.91
2022-12-17T20:17:51.372Z,-8.14
2022-12-17T20:20:19.954Z,-8.01
2022-12-17T20:22:48.703Z,-8.22
2022-12-17T20:25:17.491Z,-8.03
2022-12-17T20:27:46.119Z,-8.12
2022-12-17T20:30:16.360Z,-8.17
2022-12-17T20:32:45.000Z,-8.15
2022-12-17T20:35:13.806Z,-8.09
2022-12-17T20:37:42.024Z,-7.99
2022-12-17T20:40:11.870Z,-7.85
2022-12-17T20:42:40.611Z,-7.93
2022-12-17T20:45:10.503Z,-8.00
2022-12-17T20:47:40.503Z,-8.05
2022-12-17T20:50:09.497Z,-7.70
2022-12-17T20:52:37.875Z,-8.07
2022-12-17T20:55:07.569Z,-7.78
2022-12-17T20:57:36.231Z,-7.94
2022-12-17T21:00:06.253Z,-7.66
2022-12-17T21:02:35.028Z,-7.55
2022-12-17T21:05:06.023Z,-7.61
2022-12-17T21:07:34.487Z,-7.61
2022-12-17T21:10:03.190Z,-7.90
2022-12-17T21:12:51.838Z,-8.09
2022-12-17T21:15:20.492Z,-7.97
2022-12-17T21:17:49.578Z,-7.65
2022-12-17T21:20:20.229Z,-7.78
2022-12-17T21:22:49.720Z,-8.18
2022-12-17T21:25:18.623Z,-8.02
2022-12-17T21:27:47.213Z,-7.93
2022-12-17T21:30:17.508Z,-7.70
2022-12-17T21:32:46.238Z,-7.72
2022-12-17T21:35:15.990Z,-7.64
2022-12-17T21:37:46.955Z,-7.55
2022-12-17T21:40:16.526Z,-7.59
2022-12-17T21:43:03.187Z,-7.90
2022-12-17T21:45:36.699Z,-7.67
2022-12-17T21:48:15.015Z,-7.71
2022-12-17T21:50:45.083Z,-7.83
2022-12-17T21:53:15.305Z,-7.40
2022-12-17T21:55:43.944Z,-7.62
2022-12-17T21:58:13.155Z,-7.81
2022-12-17T22:00:41.806Z,-7.92
2022-12-17T22:03:10.641Z,-8.03
2022-12-17T22:05:39.353Z,-7.82
2022-12-17T22:08:08.141Z,-7.78
2022-12-17T22:10:51.475Z,-7.56
2022-12-17T22:13:38.641Z,-7.80
2022-12-17T22:16:08.046Z,-7.91
2022-12-17T22:18:36.864Z,-7.77
2022-12-17T22:21:05.768Z,-7.62
2022-12-17T22:23:34.415Z,-7.61
2022-12-17T22:26:09.700Z,-7.42
2022-12-17T22:28:38.383Z,-7.66
2022-12-17T22:31:24.891Z,-7.56
2022-12-17T22:34:49.308Z,-7.47
2022-12-17T22:39:03.442Z,-7.48
2022-12-17T22:44:22.559Z,-8.15
2022-12-17T22:44:49.375Z,-8.00
2022-12-17T22:45:27.623Z,-7.90
2022-12-17T22:47:56.224Z,-7.99
2022-12-17T22:50:37.275Z,-8.08
2022-12-17T22:53:10.179Z,-8.03
2022-12-17T22:55:39.245Z,-7.91
2022-12-17T22:58:09.876Z,-7.57
2022-12-17T23:00:38.309Z,-7.57
2022-12-17T23:03:07.039Z,-7.80
2022-12-17T23:05:36.015Z,-7.58
2022-12-17T23:08:04.605Z,-7.52
2022-12-17T23:10:32.869Z,-7.45
2022-12-17T23:13:01.564Z,-7.65
2022-12-17T23:15:35.029Z,-7.49
2022-12-17T23:18:07.169Z,-7.37
2022-12-17T23:20:36.090Z,-7.57
2022-12-17T23:23:04.677Z,-7.48
2022-12-17T23:25:32.998Z,-7.39
2022-12-17T23:28:01.635Z,-7.28
2022-12-17T23:30:32.013Z,-7.22
2022-12-17T23:33:00.640Z,-7.38
2022-12-17T23:35:29.315Z,-7.47
2022-12-17T23:37:58.024Z,-7.43
2022-12-17T23:40:26.725Z,-7.36
2022-12-17T23:42:57.458Z,-7.47
2022-12-17T23:45:26.228Z,-7.39
2022-12-17T23:47:59.425Z,-7.40
2022-12-17T23:50:28.124Z,-7.28
2022-12-17T23:52:56.367Z,-7.31
2022-12-17T23:55:25.047Z,-7.13
2022-12-17T23:57:56.656Z,-7.12
